createdAt,value
2023-09-23T00:03:47.559Z,12.13
2023-09-23T00:08:04.527Z,11.65
2023-09-23T00:12:21.010Z,12.57
2023-09-23T00:16:37.298Z,14.80
2023-09-23T00:20:53.866Z,14.43
2023-09-23T00:25:11.026Z,8.57
2023-09-23T00:29:30.146Z,14.25
2023-09-23T00:33:46.835Z,12.40
2023-09-23T00:38:03.868Z,15.48
2023-09-23T00:42:23.233Z,10.10
2023-09-23T00:46:41.394Z,11.05
2023-09-23T00:50:58.305Z,15.30
2023-09-23T00:55:16.219Z,10.23
2023-09-23T00:59:34.075Z,11.43
2023-09-23T01:03:51.255Z,12.32
2023-09-23T01:08:22.005Z,16.15
2023-09-23T01:12:38.334Z,14.32
2023-09-23T01:16:54.848Z,11.88
2023-09-23T01:21:11.221Z,13.60
2023-09-23T01:25:27.594Z,12.65
2023-09-23T01:29:43.911Z,18.33
2023-09-23T01:34:00.278Z,11.00
2023-09-23T01:38:17.054Z,12.85
2023-09-23T01:42:34.215Z,17.52
2023-09-23T01:46:50.960Z,14.25
2023-09-23T01:51:07.841Z,9.20
2023-09-23T01:55:24.204Z,12.85
2023-09-23T01:59:42.053Z,15.95
2023-09-23T02:03:59.594Z,14.45
2023-09-23T02:08:17.333Z,12.52
2023-09-23T02:12:34.610Z,12.98
2023-09-23T02:16:51.154Z,11.15
2023-09-23T02:21:08.732Z,13.20
2023-09-23T02:25:26.414Z,12.57
2023-09-23T02:29:42.982Z,13.82
2023-09-23T02:33:59.398Z,11.25
2023-09-23T02:38:15.833Z,10.15
2023-09-23T02:42:32.155Z,17.73
2023-09-23T02:46:49.749Z,18.75
2023-09-23T02:51:06.328Z,12.18
2023-09-23T02:55:22.819Z,10.80
2023-09-23T02:59:43.204Z,14.95
2023-09-23T03:04:08.134Z,11.32
2023-09-23T03:08:25.020Z,19.67
2023-09-23T03:12:52.634Z,10.82
2023-09-23T03:17:10.704Z,14.02
2023-09-23T03:21:27.170Z,11.10
2023-09-23T03:25:47.853Z,17.23
2023-09-23T03:30:07.236Z,11.48
2023-09-23T03:34:23.682Z,16.30
2023-09-23T03:38:40.051Z,11.45
2023-09-23T03:42:56.561Z,16.23
2023-09-23T03:47:12.984Z,10.30
2023-09-23T03:51:29.538Z,10.90
2023-09-23T03:55:45.927Z,16.20
2023-09-23T04:00:02.924Z,14.73
2023-09-23T04:04:19.396Z,15.23
2023-09-23T04:08:35.739Z,13.68
2023-09-23T04:12:54.451Z,18.75
2023-09-23T04:17:11.878Z,11.40
2023-09-23T04:21:28.647Z,8.38
2023-09-23T04:25:45.581Z,16.75
2023-09-23T04:30:13.036Z,7.47
2023-09-23T04:34:30.877Z,11.43
2023-09-23T04:38:47.554Z,10.45
2023-09-23T04:43:04.828Z,9.68
2023-09-23T04:47:21.319Z,7.40
2023-09-23T04:51:37.939Z,4.95
2023-09-23T04:55:54.349Z,6.03
2023-09-23T05:00:11.959Z,4.62
2023-09-23T05:04:28.747Z,5.80
2023-09-23T05:08:45.340Z,9.93
2023-09-23T05:13:01.851Z,7.62
2023-09-23T05:17:18.454Z,9.25
2023-09-23T05:21:35.029Z,3.55
2023-09-23T05:25:51.780Z,5.57
2023-09-23T05:30:11.910Z,7.22
2023-09-23T05:34:28.705Z,10.65
2023-09-23T05:38:45.262Z,9.38
2023-09-23T05:43:01.779Z,5.90
2023-09-23T05:47:18.320Z,6.72
2023-09-23T05:51:35.077Z,4.35
2023-09-23T05:55:51.824Z,4.45
2023-09-23T06:00:13.716Z,4.28
2023-09-23T06:04:31.754Z,4.57
2023-09-23T06:08:52.059Z,5.75
2023-09-23T06:13:09.058Z,3.67
2023-09-23T06:17:30.042Z,7.90
2023-09-23T06:21:46.990Z,3.37
2023-09-23T06:26:04.222Z,7.40
2023-09-23T06:30:20.673Z,5.85
2023-09-23T06:34:37.656Z,3.30
2023-09-23T06:38:54.360Z,6.07
2023-09-23T06:43:10.960Z,6.40
2023-09-23T06:47:27.646Z,9.93
2023-09-23T06:51:44.033Z,7.55
2023-09-23T06:56:00.533Z,3.67
2023-09-23T07:00:17.753Z,4.70
2023-09-23T07:04:34.379Z,4.28
2023-09-23T07:08:50.851Z,4.62
2023-09-23T07:13:09.925Z,5.53
2023-09-23T07:17:29.227Z,6.70
2023-09-23T07:21:45.751Z,5.62
2023-09-23T07:26:02.500Z,5.25
2023-09-23T07:30:19.282Z,6.75
2023-09-23T07:34:35.660Z,6.50
2023-09-23T07:38:52.042Z,6.35
2023-09-23T07:43:08.764Z,6.07
2023-09-23T07:47:26.743Z,7.60
2023-09-23T07:51:44.542Z,7.37
2023-09-23T07:56:01.269Z,6.90
2023-09-23T08:00:18.654Z,6.80
2023-09-23T08:04:39.089Z,10.45
2023-09-23T08:08:56.343Z,8.85
2023-09-23T08:13:12.811Z,8.68
2023-09-23T08:17:29.509Z,7.43
2023-09-23T08:21:47.242Z,7.22
2023-09-23T08:26:05.687Z,8.82
2023-09-23T08:30:22.813Z,8.25
2023-09-23T08:34:39.096Z,6.00
2023-09-23T08:38:55.727Z,4.75
2023-09-23T08:43:12.415Z,6.47
2023-09-23T08:47:30.492Z,7.45
2023-09-23T08:51:46.983Z,4.25
2023-09-23T08:56:03.806Z,4.87
2023-09-23T09:00:20.505Z,5.68
2023-09-23T09:04:37.594Z,5.78
2023-09-23T09:08:54.025Z,5.43
2023-09-23T09:13:10.531Z,5.40
2023-09-23T09:17:26.943Z,7.18
2023-09-23T09:21:43.328Z,4.10
2023-09-23T09:26:00.167Z,3.00
2023-09-23T09:30:17.065Z,3.50
2023-09-23T09:34:38.365Z,2.90
2023-09-23T09:38:56.192Z,5.78
2023-09-23T09:43:12.825Z,4.05
2023-09-23T09:47:29.737Z,7.18
2023-09-23T09:51:50.433Z,4.00
2023-09-23T09:56:07.875Z,5.75
2023-09-23T10:00:24.318Z,4.53
2023-09-23T10:04:46.317Z,5.97
2023-09-23T10:09:15.083Z,5.00
2023-09-23T10:13:33.214Z,6.78
2023-09-23T10:17:55.107Z,7.35
2023-09-23T10:22:19.689Z,8.05
2023-09-23T10:26:41.069Z,5.60
2023-09-23T10:31:08.256Z,7.03
2023-09-23T10:35:25.223Z,7.00
2023-09-23T10:39:46.151Z,5.60
2023-09-23T10:44:05.864Z,6.28
2023-09-23T10:48:22.774Z,7.68
2023-09-23T10:52:39.668Z,6.10
2023-09-23T10:57:08.048Z,7.72
2023-09-23T11:01:25.660Z,6.93
2023-09-23T11:05:45.148Z,9.43
2023-09-23T11:10:01.467Z,9.00
2023-09-23T11:14:21.571Z,9.63
2023-09-23T11:18:39.097Z,8.73
2023-09-23T11:23:05.250Z,7.87
2023-09-23T11:27:25.761Z,10.38
2023-09-23T11:31:42.095Z,9.43
2023-09-23T11:35:58.847Z,8.13
2023-09-23T11:40:18.964Z,8.88
2023-09-23T11:44:35.937Z,9.35
2023-09-23T11:48:52.430Z,7.03
2023-09-23T11:53:08.758Z,6.60
2023-09-23T11:57:25.112Z,8.23
2023-09-23T12:01:41.977Z,8.07
2023-09-23T12:05:59.008Z,7.82
2023-09-23T12:10:15.462Z,8.43
2023-09-23T12:14:31.881Z,8.93
2023-09-23T12:18:49.643Z,9.15
2023-09-23T12:23:06.054Z,8.43
2023-09-23T12:27:23.448Z,8.40
2023-09-23T12:31:39.832Z,8.05
2023-09-23T12:35:56.318Z,7.53
2023-09-23T12:40:12.904Z,5.90
2023-09-23T12:44:29.502Z,5.55
2023-09-23T12:48:46.821Z,4.80
2023-09-23T12:53:03.619Z,5.82
2023-09-23T12:57:19.977Z,5.55
2023-09-23T13:01:37.086Z,6.05
2023-09-23T13:05:53.619Z,5.45
2023-09-23T13:10:14.830Z,4.93
2023-09-23T13:14:31.393Z,6.85
2023-09-23T13:18:48.026Z,5.45
2023-09-23T13:23:10.220Z,5.35
2023-09-23T13:27:26.644Z,5.57
2023-09-23T13:31:43.056Z,6.32
2023-09-23T13:35:59.470Z,3.90
2023-09-23T13:40:16.269Z,3.47
2023-09-23T13:44:32.771Z,3.85
2023-09-23T13:48:49.427Z,8.13
2023-09-23T13:53:06.414Z,3.85
2023-09-23T13:57:23.174Z,4.78
2023-09-23T14:01:39.528Z,5.15
2023-09-23T14:05:55.931Z,4.20
2023-09-23T14:10:21.508Z,4.97
2023-09-23T14:14:39.095Z,5.50
2023-09-23T14:18:55.467Z,5.05
2023-09-23T14:23:12.574Z,5.80
2023-09-23T14:27:28.916Z,4.68
2023-09-23T14:31:45.346Z,3.87
2023-09-23T14:36:01.764Z,5.53
2023-09-23T14:40:18.298Z,3.70
2023-09-23T14:44:34.745Z,4.50
2023-09-23T14:48:51.157Z,3.87
2023-09-23T14:53:08.267Z,3.50
2023-09-23T14:57:24.870Z,3.53
2023-09-23T15:01:41.365Z,4.43
2023-09-23T15:05:57.908Z,4.70
2023-09-23T15:10:14.631Z,2.90
2023-09-23T15:14:31.250Z,2.30
2023-09-23T15:18:48.572Z,3.50
2023-09-23T15:23:06.104Z,2.40
2023-09-23T15:27:24.652Z,9.57
2023-09-23T15:31:42.195Z,5.40
2023-09-23T15:35:58.652Z,2.37
2023-09-23T15:40:17.829Z,2.78
2023-09-23T15:44:34.563Z,3.62
2023-09-23T15:48:51.501Z,3.15
2023-09-23T15:53:08.032Z,3.05
2023-09-23T15:57:24.527Z,3.95
2023-09-23T16:01:40.893Z,3.78
2023-09-23T16:05:57.611Z,2.67
2023-09-23T16:10:14.006Z,3.25
2023-09-23T16:14:30.392Z,2.45
2023-09-23T16:18:47.323Z,2.80
2023-09-23T16:23:03.814Z,3.30
2023-09-23T16:27:22.870Z,3.10
2023-09-23T16:31:39.216Z,6.85
2023-09-23T16:35:55.748Z,2.03
2023-09-23T16:40:12.592Z,2.28
2023-09-23T16:44:28.889Z,4.00
2023-09-23T16:48:45.687Z,2.08
2023-09-23T16:53:02.229Z,9.90
2023-09-23T16:57:22.322Z,1.40
2023-09-23T17:01:39.478Z,1.58
2023-09-23T17:05:57.456Z,2.78
2023-09-23T17:10:14.112Z,3.12
2023-09-23T17:14:30.814Z,6.15
2023-09-23T17:18:48.085Z,3.30
2023-09-23T17:23:04.877Z,5.55
2023-09-23T17:27:21.291Z,4.85
2023-09-23T17:31:38.393Z,2.58
2023-09-23T17:36:00.878Z,1.92
2023-09-23T17:40:17.589Z,2.37
2023-09-23T17:44:36.120Z,1.98
2023-09-23T17:48:54.116Z,2.05
2023-09-23T17:53:10.746Z,3.85
2023-09-23T17:57:29.804Z,2.67
2023-09-23T18:01:46.636Z,2.55
2023-09-23T18:06:04.035Z,5.18
2023-09-23T18:10:20.493Z,4.07
2023-09-23T18:14:37.250Z,3.35
2023-09-23T18:18:53.959Z,2.75
2023-09-23T18:23:28.306Z,3.22
2023-09-23T18:27:50.295Z,3.40
2023-09-23T18:32:09.387Z,8.98
2023-09-23T18:36:30.661Z,2.92
2023-09-23T18:40:47.579Z,3.83
2023-09-23T18:45:06.783Z,3.97
2023-09-23T18:49:25.021Z,2.10
2023-09-23T18:53:41.795Z,4.18
2023-09-23T18:57:58.433Z,4.87
2023-09-23T19:02:15.319Z,3.50
2023-09-23T19:06:31.980Z,3.17
2023-09-23T19:10:51.423Z,3.70
2023-09-23T19:15:09.311Z,3.92
2023-09-23T19:19:25.742Z,6.18
2023-09-23T19:23:48.375Z,2.80
2023-09-23T19:32:21.673Z,5.15
2023-09-23T19:36:38.531Z,6.30
2023-09-23T19:40:54.882Z,4.30
2023-09-23T19:45:12.637Z,4.50
2023-09-23T19:49:32.038Z,4.90
2023-09-23T19:53:48.597Z,5.93
2023-09-23T19:58:08.728Z,5.90
2023-09-23T20:02:26.044Z,3.70
2023-09-23T20:06:43.160Z,4.75
2023-09-23T20:11:04.189Z,5.80
2023-09-23T20:15:26.476Z,4.12
2023-09-23T20:19:42.877Z,4.07
2023-09-23T20:23:59.420Z,5.68
2023-09-23T20:28:18.966Z,5.43
2023-09-23T20:32:41.956Z,6.30
2023-09-23T20:37:00.912Z,4.90
2023-09-23T20:41:17.306Z,3.78
2023-09-23T20:45:36.047Z,4.55
2023-09-23T20:49:52.425Z,5.70
2023-09-23T20:54:08.799Z,5.53
2023-09-23T20:58:25.633Z,7.60
2023-09-23T21:02:43.591Z,7.20
2023-09-23T21:07:00.308Z,6.20
2023-09-23T21:11:18.312Z,4.93
2023-09-23T21:15:34.708Z,5.40
2023-09-23T21:19:51.680Z,4.70
2023-09-23T21:24:08.604Z,4.75
2023-09-23T21:28:25.062Z,6.87
2023-09-23T21:32:41.686Z,5.93
2023-09-23T21:36:58.726Z,4.10
2023-09-23T21:41:16.128Z,13.13
2023-09-23T21:45:32.711Z,5.47
2023-09-23T21:49:49.044Z,4.93
2023-09-23T21:54:06.081Z,4.30
2023-09-23T21:58:23.255Z,3.78
2023-09-23T22:02:39.706Z,5.40
2023-09-23T22:06:56.929Z,5.47
2023-09-23T22:11:13.666Z,5.62
2023-09-23T22:15:30.921Z,9.38
2023-09-23T22:19:47.275Z,6.82
2023-09-23T22:24:07.274Z,7.62
2023-09-23T22:28:23.652Z,5.57
2023-09-23T22:32:40.278Z,5.40
2023-09-23T22:36:56.675Z,6.87
2023-09-23T22:41:13.117Z,4.78
2023-09-23T22:45:38.526Z,7.65
2023-09-23T22:49:56.660Z,5.00
2023-09-23T22:54:13.271Z,5.18
2023-09-23T22:58:29.626Z,4.37
2023-09-23T23:02:47.705Z,5.22
2023-09-23T23:07:04.446Z,7.75
2023-09-23T23:11:22.127Z,3.95
2023-09-23T23:15:39.757Z,8.30
2023-09-23T23:19:57.071Z,5.20
2023-09-23T23:24:13.943Z,5.32
2023-09-23T23:28:32.429Z,5.78
2023-09-23T23:32:49.888Z,7.32
2023-09-23T23:37:08.487Z,7.03
2023-09-23T23:41:25.261Z,5.37
2023-09-23T23:45:41.655Z,6.37
2023-09-23T23:50:01.260Z,4.55
2023-09-23T23:54:18.261Z,5.87
2023-09-23T23:58:35.173Z,4.28
